Time;durP1;ratioP1;P1;durP2;ratioP2;P2;SDS_P1;SDS_P2;PMS_P1;PMS_P2;Temp;Humidity;BMP_temperature;BMP_pressure;BME280_temperature;BME280_humidity;BME280_pressure;Samples;Min_cycle;Max_cycle;Signal;HPM_P1;HPM_P2
2022/02/15 00:00:47;;;;;;;26.02;14.60;;;;;;;-1.39;59.26;101379.25;1758393;80;21958;-56
2022/02/15 00:03:14;;;;;;;25.75;13.90;;;;;;;-1.39;59.26;101379.25;1762664;80;21678;-56
2022/02/15 00:05:40;;;;;;;22.77;13.93;;;;;;;-1.42;59.02;101379.30;1764006;80;21086;-56
2022/02/15 00:08:07;;;;;;;22.70;13.20;;;;;;;-1.43;59.00;101375.02;1761164;80;20996;-56
2022/02/15 00:10:35;;;;;;;17.67;11.18;;;;;;;-1.40;59.16;101380.56;1765648;80;22189;-57
2022/02/15 00:13:03;;;;;;;16.45;9.25;;;;;;;-1.35;59.22;101379.61;1723967;80;22524;-56
2022/02/15 00:15:30;;;;;;;16.00;8.38;;;;;;;-1.35;59.22;101379.61;1759094;80;21123;-57
2022/02/15 00:17:58;;;;;;;12.13;6.92;;;;;;;-1.30;59.15;101383.42;1753472;79;21012;-57
2022/02/15 00:20:26;;;;;;;16.70;9.23;;;;;;;-1.25;59.00;101382.08;1748932;79;21103;-56
2022/02/15 00:22:53;;;;;;;15.95;9.10;;;;;;;-1.24;58.84;101382.05;1733826;80;21662;-57
2022/02/15 00:25:20;;;;;;;12.68;7.08;;;;;;;-1.24;58.84;101382.05;1753042;79;21044;-57
2022/02/15 00:27:48;;;;;;;12.18;7.30;;;;;;;-1.23;58.86;101377.28;1755597;80;21149;-57
2022/02/15 00:30:16;;;;;;;10.68;6.05;;;;;;;-1.23;58.86;101377.28;1728116;80;21055;-56
2022/02/15 00:32:43;;;;;;;15.40;6.00;;;;;;;-1.20;58.89;101372.53;1724722;80;21118;-57
2022/02/15 00:35:11;;;;;;;12.40;5.15;;;;;;;-1.26;58.70;101369.61;1760300;80;21105;-58
2022/02/15 00:37:38;;;;;;;13.22;5.92;;;;;;;-1.26;58.70;101369.61;1773117;79;21985;-57
2022/02/15 00:40:06;;;;;;;13.85;7.62;;;;;;;-1.27;58.80;101365.31;1775740;79;21491;-57
2022/02/15 00:42:35;;;;;;;12.43;7.70;;;;;;;-1.31;58.86;101363.22;1789046;79;21051;-59
2022/02/15 00:45:04;;;;;;;13.03;6.70;;;;;;;-1.28;58.82;101356.29;1786628;79;21058;-57
2022/02/15 00:47:33;;;;;;;19.92;7.85;;;;;;;-1.28;58.82;101356.29;1785016;79;21562;-58
2022/02/15 00:50:00;;;;;;;15.93;8.25;;;;;;;-1.32;58.92;101352.46;1787338;79;21797;-58
2022/02/15 00:52:27;;;;;;;14.25;9.18;;;;;;;-1.33;58.84;101346.91;1756046;79;21085;-57
2022/02/15 00:54:56;;;;;;;23.32;14.07;;;;;;;-1.32;58.85;101356.33;1774753;79;21046;-58
2022/02/15 00:57:23;;;;;;;27.30;15.63;;;;;;;-1.34;58.95;101347.77;1775240;79;21098;-57
2022/02/15 00:59:50;;;;;;;33.10;17.50;;;;;;;-1.37;58.84;101347.80;1778535;79;21070;-58
2022/02/15 01:02:17;;;;;;;29.90;17.15;;;;;;;-1.52;58.47;101347.59;1780533;79;21176;-56
2022/02/15 01:04:44;;;;;;;28.40;16.65;;;;;;;-1.52;58.47;101347.59;1786876;79;21687;-56
2022/02/15 01:07:11;;;;;;;29.42;17.65;;;;;;;-1.56;58.95;101349.81;1779251;79;21050;-64
2022/02/15 01:09:39;;;;;;;22.25;15.35;;;;;;;-1.70;58.75;101344.86;1710196;81;23429;-65
2022/02/15 01:12:07;;;;;;;34.18;17.87;;;;;;;-1.68;58.94;101351.29;1776559;79;21639;-65
2022/02/15 01:14:35;;;;;;;27.55;15.30;;;;;;;-1.68;58.94;101351.29;1782753;79;21122;-64
2022/02/15 01:17:01;;;;;;;24.50;15.28;;;;;;;-1.70;58.97;101353.88;1765983;79;21061;-64
2022/02/15 01:19:29;;;;;;;24.20;14.50;;;;;;;-1.67;58.80;101345.67;1772676;79;21073;-64
2022/02/15 01:21:55;;;;;;;24.80;13.78;;;;;;;-1.67;58.80;101345.67;1785616;79;21093;-68
2022/02/15 01:24:22;;;;;;;25.80;15.05;;;;;;;-1.63;59.09;101344.75;1782596;79;21028;-65
2022/02/15 01:26:48;;;;;;;21.87;13.40;;;;;;;-1.62;58.95;101345.17;1753084;79;21118;-65
2022/02/15 01:29:15;;;;;;;21.48;12.35;;;;;;;-1.70;58.99;101337.53;1785197;79;21034;-64
2022/02/15 01:31:41;;;;;;;24.23;13.05;;;;;;;-1.70;58.99;101337.53;1729605;80;21117;-66
2022/02/15 01:34:08;;;;;;;23.67;10.82;;;;;;;-1.76;59.06;101337.19;1774264;79;21034;-64
2022/02/15 01:36:35;;;;;;;26.90;13.90;;;;;;;-1.76;59.06;101337.19;1785368;79;21122;-65
2022/02/15 01:39:01;;;;;;;25.43;13.88;;;;;;;-1.82;59.12;101335.97;1761006;79;21048;-66
2022/02/15 01:41:28;;;;;;;23.83;13.08;;;;;;;-1.83;59.19;101336.86;1787970;79;20987;-66
2022/02/15 01:43:55;;;;;;;26.73;14.60;;;;;;;-1.90;59.25;101338.67;1737068;79;21061;-64
2022/02/15 01:46:21;;;;;;;26.93;16.10;;;;;;;-1.96;59.35;101334.02;1784630;79;21043;-65
2022/02/15 01:48:48;;;;;;;26.40;14.40;;;;;;;-1.97;59.44;101331.86;1791285;79;21097;-65
2022/02/15 01:51:17;;;;;;;22.40;13.88;;;;;;;-1.99;59.39;101335.34;1754448;79;21070;-66
2022/02/15 01:53:44;;;;;;;31.93;15.20;;;;;;;-2.00;59.51;101331.05;1790359;79;21050;-66
2022/02/15 01:56:12;;;;;;;32.08;15.95;;;;;;;-2.04;59.58;101327.66;1778587;79;21087;-65
2022/02/15 01:58:40;;;;;;;28.57;14.63;;;;;;;-2.07;59.65;101328.57;1793281;79;21085;-66
2022/02/15 02:01:08;;;;;;;20.85;13.68;;;;;;;-2.08;59.67;101331.16;1756305;79;21063;-65
2022/02/15 02:03:36;;;;;;;30.40;13.68;;;;;;;-2.10;59.71;101332.88;1786250;79;20937;-65
2022/02/15 02:06:03;;;;;;;24.60;12.68;;;;;;;-2.15;59.69;101339.41;1781787;79;21078;-65
2022/02/15 02:08:35;;;;;;;21.05;14.10;;;;;;;-2.22;59.98;101333.05;1789269;79;21050;-66
2022/02/15 02:11:02;;;;;;;25.80;13.95;;;;;;;-2.22;59.98;101333.05;1780715;79;21133;-66
2022/02/15 02:13:31;;;;;;;25.82;14.60;;;;;;;-2.21;60.08;101333.02;1785088;78;21564;-66
2022/02/15 02:16:00;;;;;;;23.73;14.80;;;;;;;-2.19;59.92;101335.59;1791109;79;21062;-66
2022/02/15 02:18:28;;;;;;;20.20;11.70;;;;;;;-2.21;59.68;101333.02;1788427;79;21478;-66
2022/02/15 02:21:02;;;;;;;17.40;10.48;;;;;;;-2.22;59.76;101335.17;1758959;79;21171;-66
2022/02/15 02:23:30;;;;;;;15.50;9.68;;;;;;;-2.18;59.83;101339.89;1784914;79;21063;-67
2022/02/15 02:25:58;;;;;;;17.27;9.88;;;;;;;-2.18;60.01;101334.28;1784547;79;21101;-66
2022/02/15 02:28:25;;;;;;;14.05;8.45;;;;;;;-2.17;60.22;101342.45;1785301;79;21114;-65
2022/02/15 02:30:52;;;;;;;14.25;9.00;;;;;;;-2.11;60.29;101344.09;1755926;79;21502;-67
2022/02/15 02:33:19;;;;;;;20.50;11.18;;;;;;;-2.12;60.38;101339.80;1787926;79;21046;-67
2022/02/15 02:35:48;;;;;;;15.18;8.90;;;;;;;-2.09;60.54;101338.02;1789500;79;21544;-66
2022/02/15 02:38:15;;;;;;;17.30;7.25;;;;;;;-2.05;60.79;101332.42;1781943;79;21052;-66
2022/02/15 02:40:42;;;;;;;15.95;7.25;;;;;;;-1.99;60.83;101336.64;1781068;79;21181;-66
2022/02/15 02:43:08;;;;;;;15.88;8.45;;;;;;;-1.97;60.78;101334.44;1782300;79;21360;-67
2022/02/15 02:45:35;;;;;;;17.07;8.13;;;;;;;-1.94;60.66;101332.27;1775151;79;21096;-66
2022/02/15 02:48:04;;;;;;;12.88;7.62;;;;;;;-1.92;60.45;101329.23;1780222;79;21129;-66
2022/02/15 02:50:31;;;;;;;12.18;7.05;;;;;;;-1.88;60.32;101340.78;1782434;79;21097;-65
2022/02/15 02:52:59;;;;;;;13.43;6.72;;;;;;;-1.87;60.23;101341.22;1725477;80;21223;-67
2022/02/15 02:55:29;;;;;;;12.28;7.15;;;;;;;-1.87;60.02;101339.92;1732033;82;21118;-66
2022/02/15 02:57:56;;;;;;;11.78;5.95;;;;;;;-1.86;59.90;101338.19;1707667;82;21128;-66
2022/02/15 03:00:23;;;;;;;17.98;8.10;;;;;;;-1.87;59.98;101339.92;1725577;82;21097;-67
2022/02/15 03:03:07;;;;;;;12.80;6.58;;;;;;;-1.85;60.11;101341.61;1727642;82;22399;-66
2022/02/15 03:05:32;;;;;;;14.55;6.97;;;;;;;-1.85;60.11;101341.61;1696644;82;21094;-66
2022/02/15 03:08:01;;;;;;;14.70;6.30;;;;;;;-1.87;59.92;101339.05;1725913;82;21114;-66
2022/02/15 03:10:28;;;;;;;12.00;6.92;;;;;;;-1.89;59.95;101340.36;1720998;81;21084;-67
2022/02/15 03:12:55;;;;;;;10.58;6.35;;;;;;;-1.85;59.94;101340.31;1725854;82;21079;-67
2022/02/15 03:15:25;;;;;;;12.43;6.62;;;;;;;-1.85;59.89;101346.77;1733307;80;21000;-65
2022/02/15 03:17:52;;;;;;;14.63;6.75;;;;;;;-1.83;59.88;101346.30;1721013;81;22653;-65
2022/02/15 03:20:19;;;;;;;17.02;7.53;;;;;;;-1.82;59.72;101341.58;1662295;82;21153;-67
2022/02/15 03:22:46;;;;;;;15.60;7.05;;;;;;;-1.81;59.57;101340.72;1790326;79;21364;-66
2022/02/15 03:25:12;;;;;;;13.88;6.78;;;;;;;-1.81;59.42;101341.55;1783670;79;21543;-67
2022/02/15 03:27:40;;;;;;;12.40;6.30;;;;;;;-1.83;59.37;101345.02;1772815;79;20988;-66
2022/02/15 03:30:08;;;;;;;13.35;6.62;;;;;;;-1.86;59.44;101344.64;1745271;79;21218;-67
2022/02/15 03:32:38;;;;;;;11.25;6.03;;;;;;;-1.86;59.62;101348.51;1785989;79;21034;-66
2022/02/15 03:35:07;;;;;;;11.55;5.62;;;;;;;-1.88;59.76;101348.52;1756206;79;21062;-67
2022/02/15 03:37:36;;;;;;;10.85;5.92;;;;;;;-1.85;59.69;101343.74;1784148;79;21069;-66
2022/02/15 03:40:04;;;;;;;17.30;6.97;;;;;;;-1.89;59.51;101342.94;1778815;79;21054;-66
2022/02/15 03:45:16;;;;;;;10.28;5.87;;;;;;;-1.88;60.03;101339.49;1772490;79;21680;-67
2022/02/15 03:47:56;;;;;;;16.73;7.80;;;;;;;-1.90;59.97;101340.38;1785819;79;21700;-67
2022/02/15 03:50:23;;;;;;;12.35;7.20;;;;;;;-1.94;60.04;101346.45;1754890;79;21102;-66
2022/02/15 03:52:51;;;;;;;14.05;6.95;;;;;;;-1.98;60.17;101338.36;1778540;79;21076;-68
2022/02/15 03:55:18;;;;;;;14.47;7.92;;;;;;;-2.02;60.15;101340.54;1783726;79;21525;-67
2022/02/15 03:57:45;;;;;;;13.32;7.53;;;;;;;-2.11;59.99;101342.36;1779748;78;21101;-67
2022/02/15 04:00:14;;;;;;;14.23;8.10;;;;;;;-2.17;59.76;101346.31;1789919;79;21054;-67
2022/02/15 04:02:42;;;;;;;15.72;7.30;;;;;;;-2.22;59.60;101344.20;1784857;79;21497;-69
2022/02/15 04:05:09;;;;;;;14.35;7.17;;;;;;;-2.31;59.74;101346.90;1756820;79;21074;-65
2022/02/15 04:07:36;;;;;;;11.80;6.83;;;;;;;-2.32;60.05;101337.45;1788871;79;21095;-66
2022/02/15 04:10:04;;;;;;;12.65;6.65;;;;;;;-2.29;60.37;101339.55;1759902;79;21109;-65
2022/02/15 04:12:32;;;;;;;13.20;6.83;;;;;;;-2.27;60.38;101339.53;1754062;79;21082;-66
2022/02/15 04:14:59;;;;;;;12.90;7.25;;;;;;;-2.24;60.44;101342.08;1790892;79;21134;-67
2022/02/15 04:17:27;;;;;;;14.90;8.18;;;;;;;-2.24;60.43;101340.80;1784010;79;21114;-63
2022/02/15 04:19:55;;;;;;;17.07;8.25;;;;;;;-2.25;60.20;101343.81;1755040;79;21202;-63
2022/02/15 04:22:22;;;;;;;14.28;7.17;;;;;;;-2.27;60.17;101343.41;1753569;79;21071;-64
2022/02/15 04:24:50;;;;;;;12.18;7.25;;;;;;;-2.28;60.05;101340.42;1782659;79;21098;-61
2022/02/15 04:27:17;;;;;;;13.35;7.30;;;;;;;-2.28;59.78;101340.42;1787402;79;21136;-59
2022/02/15 04:29:44;;;;;;;14.10;8.00;;;;;;;-2.31;59.64;101350.32;1783100;79;21490;-61
2022/02/15 04:32:11;;;;;;;14.70;7.25;;;;;;;-2.32;59.66;101349.05;1756273;79;21184;-65
2022/02/15 04:34:39;;;;;;;13.55;7.67;;;;;;;-2.32;59.75;101347.76;1779681;78;20980;-66
2022/02/15 04:37:07;;;;;;;14.43;7.20;;;;;;;-2.31;59.72;101348.19;1784329;79;21102;-63
2022/02/15 04:39:36;;;;;;;18.10;8.58;;;;;;;-2.28;59.67;101345.14;1770799;79;21047;-63
2022/02/15 04:42:08;;;;;;;16.97;8.45;;;;;;;-2.30;59.76;101347.33;1738812;80;21972;-68
2022/02/15 04:44:34;;;;;;;14.60;8.53;;;;;;;-2.29;59.95;101355.46;1741401;80;21170;-59
2022/02/15 04:47:02;;;;;;;20.62;9.00;;;;;;;-2.29;60.10;101347.73;1742580;80;21074;-64
2022/02/15 04:49:28;;;;;;;18.35;8.63;;;;;;;-2.27;60.15;101348.14;1710768;82;21098;-64
2022/02/15 04:51:56;;;;;;;18.55;8.98;;;;;;;-2.20;60.07;101354.50;1745950;81;21063;-64
2022/02/15 04:54:22;;;;;;;19.70;9.43;;;;;;;-2.15;60.02;101351.02;1744692;80;21082;-66
2022/02/15 04:56:50;;;;;;;18.27;8.90;;;;;;;-2.14;60.04;101353.14;1728908;79;22926;-65
2022/02/15 04:59:20;;;;;;;15.00;7.65;;;;;;;-2.15;60.05;101348.44;1730749;80;21032;-65
2022/02/15 05:01:50;;;;;;;15.68;8.18;;;;;;;-2.13;59.94;101350.55;1740545;80;21971;-66
2022/02/15 05:07:07;;;;;;;19.07;8.48;;;;;;;-2.18;59.75;101360.07;1694021;83;21106;-66
2022/02/15 05:09:36;;;;;;;18.10;8.83;;;;;;;-2.21;59.84;101362.67;1712902;81;21089;-61
2022/02/15 05:12:03;;;;;;;14.18;7.97;;;;;;;-2.20;60.05;101363.11;1694429;82;21070;-65
2022/02/15 05:14:31;;;;;;;14.78;8.73;;;;;;;-2.17;59.84;101366.95;1691256;82;21059;-66
2022/02/15 05:16:58;;;;;;;16.97;7.55;;;;;;;-2.12;59.70;101365.17;1700696;81;21138;-65
2022/02/15 05:19:27;;;;;;;18.80;8.03;;;;;;;-2.09;59.82;101368.97;1740572;80;21077;-63
2022/02/15 05:21:58;;;;;;;15.72;9.00;;;;;;;-2.06;59.76;101364.23;1707995;80;21695;-65
2022/02/15 05:24:24;;;;;;;18.70;7.58;;;;;;;-2.04;59.50;101371.50;1737393;81;21123;-64
2022/02/15 05:26:58;;;;;;;15.83;8.03;;;;;;;-2.07;59.49;101368.95;1718018;81;21148;-60
2022/02/15 05:29:35;;;;;;;18.27;6.58;;;;;;;-2.11;59.45;101374.59;1715819;81;21073;-64
2022/02/15 05:32:20;;;;;;;13.90;7.22;;;;;;;-2.12;59.52;101375.89;1717423;81;21587;-66
2022/02/15 05:34:47;;;;;;;19.75;8.03;;;;;;;-2.11;59.59;101376.33;1691405;81;22177;-65
2022/02/15 05:37:15;;;;;;;11.68;6.45;;;;;;;-2.11;59.52;101373.30;1734589;80;21135;-62
2022/02/15 05:39:44;;;;;;;11.08;6.50;;;;;;;-2.09;59.49;101376.71;1738773;80;21331;-66
2022/02/15 05:42:11;;;;;;;14.58;7.22;;;;;;;-2.07;59.66;101389.17;1734228;81;21083;-67
2022/02/15 05:44:38;;;;;;;12.40;6.10;;;;;;;-2.04;59.76;101384.84;1703222;82;21117;-61
2022/02/15 05:47:06;;;;;;;17.45;7.62;;;;;;;-1.99;59.65;101390.80;1708440;80;22722;-63
2022/02/15 05:50:49;;;;;;;21.07;8.25;;;;;;;-1.96;59.93;101385.17;1719281;81;21044;-69
2022/02/15 05:52:05;;;;;;;17.48;8.25;;;;;;;-1.90;59.94;101385.11;1714426;81;21046;-71
2022/02/15 05:54:33;;;;;;;16.60;8.53;;;;;;;-1.84;59.85;101389.32;1723080;81;21115;-64
2022/02/15 05:57:01;;;;;;;18.10;8.73;;;;;;;-1.79;60.00;101384.95;1653414;82;21681;-73
2022/02/15 05:59:35;;;;;;;18.27;8.75;;;;;;;-1.71;60.14;101380.55;1739873;80;22206;-67
2022/02/15 06:02:07;;;;;;;21.50;8.90;;;;;;;-1.62;59.97;101384.73;1723367;80;21512;-66
2022/02/15 06:04:41;;;;;;;16.42;7.60;;;;;;;-1.56;59.83;101382.52;1713864;82;21160;-72
2022/02/15 06:07:12;;;;;;;12.63;7.08;;;;;;;-1.54;59.82;101379.48;1738479;80;21816;-63
2022/02/15 06:09:40;;;;;;;14.98;7.17;;;;;;;-1.48;59.93;101389.70;1717478;81;21054;-64
2022/02/15 06:12:10;;;;;;;18.87;8.18;;;;;;;-1.43;60.04;101389.22;1717945;81;21125;-65
2022/02/15 06:14:55;;;;;;;12.45;7.33;;;;;;;-1.37;60.07;101386.53;1747734;80;21137;-64
2022/02/15 06:17:22;;;;;;;14.53;6.80;;;;;;;-1.28;60.18;101396.31;1740067;80;21426;-66
2022/02/15 06:19:50;;;;;;;15.98;6.12;;;;;;;-1.14;60.50;101389.23;1675337;83;21140;-65
2022/02/15 06:22:18;;;;;;;11.22;5.67;;;;;;;-1.14;60.50;101389.23;1738758;80;21153;-66
2022/02/15 06:24:45;;;;;;;16.82;5.33;;;;;;;-1.04;60.51;101389.91;1736605;80;21142;-65
2022/02/15 06:27:14;;;;;;;11.18;5.30;;;;;;;-0.94;60.68;101388.47;1705033;80;21092;-58
2022/02/15 06:29:48;;;;;;;8.08;4.35;;;;;;;-0.85;60.86;101387.46;1717481;80;21140;-58
2022/02/15 06:32:16;;;;;;;9.90;5.10;;;;;;;-0.65;61.27;101388.42;1705135;82;21460;-59
2022/02/15 06:34:43;;;;;;;13.50;5.45;;;;;;;-0.65;61.27;101388.42;1700875;82;21049;-58
2022/02/15 06:37:10;;;;;;;15.23;7.80;;;;;;;-0.51;61.40;101383.45;1739479;80;21140;-58
2022/02/15 06:39:38;;;;;;;19.37;7.53;;;;;;;-0.38;61.68;101389.66;1745840;80;21097;-59
2022/02/15 06:42:08;;;;;;;15.40;7.35;;;;;;;-0.24;61.96;101375.16;1710742;82;21094;-58
2022/02/15 06:44:34;;;;;;;15.75;5.55;;;;;;;-0.13;61.53;101379.30;1735048;80;21148;-57
2022/02/15 06:47:02;;;;;;;12.23;5.50;;;;;;;-0.06;61.50;101380.88;1719910;80;21079;-59
2022/02/15 06:49:33;;;;;;;9.03;5.22;;;;;;;0.03;61.40;101383.27;1742515;80;21205;-59
2022/02/15 06:52:17;;;;;;;10.63;4.83;;;;;;;0.10;61.40;101379.69;1654065;85;21141;-57
2022/02/15 06:54:45;;;;;;;9.50;4.70;;;;;;;0.22;61.31;101386.34;1696861;82;21057;-55
2022/02/15 06:57:16;;;;;;;10.45;4.78;;;;;;;0.28;60.98;101380.17;1740842;80;21089;-58
2022/02/15 06:59:42;;;;;;;9.23;5.30;;;;;;;0.35;61.06;101379.15;1751481;80;21136;-58
2022/02/15 07:02:09;;;;;;;10.35;4.92;;;;;;;0.41;60.92;101373.85;1747395;80;21335;-58
2022/02/15 07:04:37;;;;;;;10.25;5.08;;;;;;;0.48;61.07;101378.00;1735388;80;21026;-52
2022/02/15 07:07:04;;;;;;;10.05;4.03;;;;;;;0.62;60.77;101376.84;1719228;81;21074;-55
2022/02/15 07:09:33;;;;;;;12.93;5.97;;;;;;;0.70;60.67;101373.63;1730876;81;21491;-58
2022/02/15 07:12:13;;;;;;;11.20;4.55;;;;;;;0.80;60.49;101376.42;1750583;80;21686;-66
2022/02/15 07:14:47;;;;;;;12.43;6.03;;;;;;;0.88;60.34;101368.47;1724373;80;22639;-66
2022/02/15 07:17:16;;;;;;;12.33;4.90;;;;;;;0.97;60.33;101369.53;1749415;80;21116;-59
2022/02/15 07:19:42;;;;;;;11.40;4.80;;;;;;;1.08;60.16;101370.58;1700690;80;21073;-64
2022/02/15 07:22:21;;;;;;;8.88;5.00;;;;;;;1.19;59.90;101369.84;1754000;80;21137;-68
2022/02/15 07:24:50;;;;;;;8.20;4.97;;;;;;;1.28;59.57;101372.22;1754549;80;21610;-71
2022/02/15 07:27:22;;;;;;;8.25;4.35;;;;;;;1.38;59.44;101361.59;1751123;80;21121;-71
2022/02/15 07:29:50;;;;;;;10.20;4.10;;;;;;;1.49;58.86;101363.02;1748452;80;21129;-67
2022/02/15 07:32:24;;;;;;;8.95;3.92;;;;;;;1.58;58.57;101367.14;1750416;80;21061;-71
2022/02/15 07:34:51;;;;;;;7.97;4.08;;;;;;;1.68;58.27;101369.01;1747999;80;21369;-70
2022/02/15 07:37:22;;;;;;;10.88;4.55;;;;;;;1.75;58.04;101359.31;1750887;80;21115;-71
2022/02/15 07:39:48;;;;;;;9.48;4.83;;;;;;;1.82;57.95;101360.87;1753294;80;21183;-70
2022/02/15 07:42:15;;;;;;;9.10;4.92;;;;;;;1.91;57.86;101358.00;1751701;80;21062;-68
2022/02/15 07:44:44;;;;;;;9.70;4.45;;;;;;;2.01;57.56;101349.05;1747790;80;21048;-69
2022/02/15 07:47:10;;;;;;;10.08;4.85;;;;;;;2.13;57.13;101349.59;1756679;80;21208;-63
2022/02/15 07:49:37;;;;;;;8.83;4.60;;;;;;;2.19;56.79;101350.27;1712961;81;21535;-54
2022/02/15 07:54:59;;;;;;;12.10;5.62;;;;;;;2.35;56.57;101344.15;1799408;77;23466;-54
2022/02/15 07:57:25;;;;;;;12.85;4.75;;;;;;;2.47;56.25;101342.95;1776044;78;21567;-53
2022/02/15 07:59:54;;;;;;;9.60;5.22;;;;;;;2.56;56.07;101345.25;1773940;79;21062;-52
2022/02/15 08:02:21;;;;;;;9.75;5.25;;;;;;;2.68;55.63;101343.17;1750442;78;21081;-53
2022/02/15 08:04:48;;;;;;;8.30;3.95;;;;;;;2.75;55.35;101338.17;1774453;79;21088;-54
2022/02/15 08:07:14;;;;;;;11.93;5.78;;;;;;;2.82;55.26;101334.92;1756535;80;21065;-53
2022/02/15 08:09:41;;;;;;;13.53;5.80;;;;;;;2.92;55.02;101337.63;1777315;78;21066;-52
2022/02/15 08:12:11;;;;;;;8.88;4.33;;;;;;;2.99;54.82;101335.21;1775728;78;21513;-52
2022/02/15 08:14:39;;;;;;;11.38;4.40;;;;;;;3.09;54.63;101331.43;1773332;78;21089;-51
2022/02/15 08:17:05;;;;;;;7.30;3.30;;;;;;;3.22;53.64;101324.50;1767629;78;21005;-51
2022/02/15 08:19:32;;;;;;;7.20;3.35;;;;;;;3.29;52.94;101323.38;1773315;79;21108;-53
2022/02/15 08:22:00;;;;;;;9.73;4.12;;;;;;;3.37;52.71;101330.93;1775391;78;21731;-53
2022/02/15 08:24:28;;;;;;;9.60;4.25;;;;;;;3.43;52.60;101322.89;1768209;79;21276;-53
2022/02/15 08:26:57;;;;;;;7.50;3.58;;;;;;;3.53;52.78;101322.95;1767752;80;22584;-52
2022/02/15 08:29:24;;;;;;;6.95;2.72;;;;;;;3.64;52.25;101329.94;1748698;79;21132;-53
2022/02/15 08:31:51;;;;;;;9.10;3.60;;;;;;;3.73;51.08;101330.05;1775624;78;21069;-53
2022/02/15 08:34:18;;;;;;;7.90;3.87;;;;;;;3.80;50.80;101328.08;1774318;78;21467;-55
2022/02/15 08:36:44;;;;;;;11.05;3.55;;;;;;;3.84;50.95;101325.31;1780935;79;21988;-53
2022/02/15 08:39:11;;;;;;;9.25;3.42;;;;;;;3.89;50.61;101322.55;1774611;79;21106;-52
2022/02/15 08:41:41;;;;;;;7.65;3.90;;;;;;;3.96;50.38;101325.77;1768716;78;21065;-52
2022/02/15 08:44:09;;;;;;;6.92;3.30;;;;;;;4.02;50.02;101321.65;1773465;78;21110;-52
2022/02/15 08:46:35;;;;;;;8.63;2.92;;;;;;;4.08;49.61;101319.66;1771640;78;21101;-51
2022/02/15 08:49:02;;;;;;;7.92;3.83;;;;;;;4.12;49.47;101323.00;1751278;79;21121;-53
2022/02/15 08:51:28;;;;;;;8.20;3.65;;;;;;;4.17;49.07;101315.85;1774013;78;21040;-54
2022/02/15 08:53:55;;;;;;;11.25;3.12;;;;;;;4.22;49.58;101318.25;1766068;79;21176;-53
2022/02/15 08:56:22;;;;;;;10.88;3.90;;;;;;;4.30;49.02;101320.58;1762879;79;21113;-51
2022/02/15 08:58:48;;;;;;;12.15;4.12;;;;;;;4.35;48.29;101314.73;1760214;79;21014;-54
2022/02/15 09:01:15;;;;;;;7.20;3.27;;;;;;;4.37;48.42;101314.21;1756684;79;21102;-51
2022/02/15 09:03:42;;;;;;;6.90;2.62;;;;;;;4.38;48.54;101308.10;1768054;80;21375;-52
2022/02/15 09:06:10;;;;;;;6.97;2.98;;;;;;;4.45;48.18;101312.16;1760654;79;21024;-51
2022/02/15 09:08:37;;;;;;;9.00;2.98;;;;;;;4.50;48.39;101314.13;1766320;79;21051;-52
2022/02/15 09:11:04;;;;;;;6.30;3.08;;;;;;;4.58;48.07;101312.52;1762361;79;21081;-52
2022/02/15 09:13:31;;;;;;;7.65;3.17;;;;;;;4.64;48.00;101306.61;1745871;79;22058;-52
2022/02/15 09:15:57;;;;;;;9.53;3.15;;;;;;;4.70;47.33;101310.72;1761245;79;22220;-51
2022/02/15 09:18:25;;;;;;;6.72;3.20;;;;;;;4.74;47.30;101306.22;1764468;79;22089;-51
2022/02/15 09:20:51;;;;;;;11.90;3.08;;;;;;;4.78;47.20;101309.11;1744406;80;21399;-52
2022/02/15 09:23:18;;;;;;;5.87;3.20;;;;;;;4.84;47.35;101295.80;1761255;79;21036;-50
2022/02/15 09:25:45;;;;;;;8.05;3.00;;;;;;;4.94;47.20;101297.14;1760764;79;21078;-54
2022/02/15 09:28:11;;;;;;;8.98;3.40;;;;;;;5.03;46.65;101294.13;1737994;80;21380;-51
2022/02/15 09:30:38;;;;;;;8.35;3.02;;;;;;;5.10;46.88;101295.19;1734274;79;21050;-53
2022/02/15 09:33:04;;;;;;;10.85;4.03;;;;;;;5.17;46.42;101292.70;1760590;79;21552;-53
2022/02/15 09:35:31;;;;;;;8.25;3.27;;;;;;;5.24;46.37;101293.28;1763413;79;21547;-51
2022/02/15 09:37:58;;;;;;;7.90;3.30;;;;;;;5.30;46.41;101286.04;1704077;82;22608;-60
2022/02/15 09:40:24;;;;;;;12.60;3.30;;;;;;;5.38;46.19;101291.77;1753710;79;22518;-60
2022/02/15 09:42:51;;;;;;;5.60;2.87;;;;;;;5.48;46.35;101288.74;1759464;79;21505;-60
2022/02/15 09:45:17;;;;;;;7.67;3.02;;;;;;;5.56;46.14;101278.38;1761556;79;22413;-55
2022/02/15 09:47:45;;;;;;;7.17;2.85;;;;;;;5.67;45.67;101276.57;1769388;79;21086;-56
2022/02/15 09:50:12;;;;;;;7.40;3.25;;;;;;;5.75;44.82;101270.55;1737038;79;21183;-58
2022/02/15 09:52:46;;;;;;;5.78;2.70;;;;;;;5.81;44.46;101269.41;1724611;82;21099;-59
2022/02/15 09:55:09;;;;;;;8.40;3.42;;;;;;;5.86;44.32;101267.89;1700916;82;21571;-57
2022/02/15 09:57:37;;;;;;;7.60;3.70;;;;;;;5.90;44.39;101268.13;1698598;82;21112;-58
2022/02/15 10:00:05;;;;;;;5.45;2.45;;;;;;;5.94;44.22;101268.39;1679910;82;21076;-58
2022/02/15 10:02:35;;;;;;;6.60;2.33;;;;;;;5.97;44.34;101255.23;1665605;83;21064;-58
2022/02/15 10:05:02;;;;;;;6.62;2.62;;;;;;;6.02;44.02;101260.21;1673098;82;21198;-59
2022/02/15 10:07:29;;;;;;;5.83;2.35;;;;;;;6.04;43.79;101255.78;1696589;82;21137;-58
2022/02/15 10:09:57;;;;;;;7.12;2.75;;;;;;;6.06;43.78;101260.00;1718451;81;21074;-58
2022/02/15 10:12:24;;;;;;;8.38;2.67;;;;;;;6.08;43.89;101252.93;1705110;82;21533;-57
2022/02/15 10:14:54;;;;;;;8.55;2.72;;;;;;;6.10;43.94;101247.63;1724474;82;22780;-58
2022/02/15 10:17:23;;;;;;;8.60;3.02;;;;;;;6.14;43.79;101243.50;1685844;83;21125;-58
2022/02/15 10:19:51;;;;;;;7.83;3.80;;;;;;;6.18;43.55;101245.98;1713026;82;21162;-56
2022/02/15 10:22:19;;;;;;;8.33;2.85;;;;;;;6.23;43.66;101245.30;1701992;82;21142;-56
2022/02/15 10:24:55;;;;;;;6.78;3.10;;;;;;;6.29;43.24;101246.31;1676047;84;21059;-56
2022/02/15 10:27:35;;;;;;;;;;;;;;;6.33;43.45;101237.39;1707859;82;21165;-56
2022/02/15 10:29:58;;;;;;;7.60;2.87;;;;;;;6.35;43.21;101244.69;1683735;82;20205;-59
2022/02/15 10:32:25;;;;;;;7.70;3.08;;;;;;;6.32;43.32;101238.30;1709463;82;21102;-58
2022/02/15 10:34:58;;;;;;;7.22;3.00;;;;;;;6.35;43.60;101242.08;1704556;82;21165;-57
2022/02/15 10:37:32;;;;;;;6.95;2.80;;;;;;;6.42;43.57;101242.19;1706305;83;21167;-58
2022/02/15 10:40:04;;;;;;;6.27;2.90;;;;;;;6.49;43.52;101232.28;1704409;82;21072;-57
2022/02/15 10:42:31;;;;;;;10.58;3.00;;;;;;;6.57;42.80;101227.95;1705631;82;21070;-59
2022/02/15 10:45:08;;;;;;;5.78;2.92;;;;;;;6.59;42.62;101220.88;1708329;81;21003;-53
2022/02/15 10:47:37;;;;;;;7.35;3.20;;;;;;;6.62;42.93;101225.52;1708891;81;21090;-53
2022/02/15 10:50:07;;;;;;;7.40;3.33;;;;;;;6.65;43.34;101217.48;1704347;82;21659;-51
2022/02/15 10:52:34;;;;;;;8.83;3.80;;;;;;;6.71;43.04;101212.44;1700844;81;21100;-50
2022/02/15 10:55:01;;;;;;;5.58;2.62;;;;;;;6.74;42.59;101209.67;1707766;81;21724;-50
2022/02/15 10:57:28;;;;;;;9.30;3.45;;;;;;;6.76;43.01;101211.73;1704265;81;21042;-51
2022/02/15 10:59:57;;;;;;;6.65;3.20;;;;;;;6.84;42.68;101208.27;1687264;83;21130;-51
2022/02/15 11:02:30;;;;;;;8.45;3.85;;;;;;;6.91;42.63;101206.19;1704448;81;21142;-51
2022/02/15 11:05:01;;;;;;;6.95;3.12;;;;;;;6.96;42.24;101200.25;1705501;81;21107;-52
2022/02/15 11:07:29;;;;;;;9.65;3.70;;;;;;;6.99;42.33;101203.16;1704338;82;21056;-50
2022/02/15 11:10:20;;;;;;;7.90;3.58;;;;;;;7.03;42.20;101194.23;1689549;83;21050;-51
2022/02/15 11:12:55;;;;;;;8.25;4.50;;;;;;;7.08;41.78;101186.98;1702795;82;21125;-57
2022/02/15 11:15:24;;;;;;;7.47;3.30;;;;;;;7.09;42.19;101192.59;1673523;82;21160;-60
2022/02/15 11:17:56;;;;;;;9.40;3.90;;;;;;;7.10;42.56;101186.44;1766805;79;21119;-50
2022/02/15 11:20:27;;;;;;;6.60;3.55;;;;;;;7.14;41.97;101184.03;1765605;79;21105;-61
2022/02/15 11:22:57;;;;;;;8.33;3.80;;;;;;;7.19;41.93;101176.78;1761340;79;21046;-61
2022/02/15 11:25:30;;;;;;;10.72;4.70;;;;;;;7.23;42.17;101185.34;1734823;80;21106;-62
2022/02/15 11:28:14;;;;;;;8.48;4.15;;;;;;;7.27;42.38;101169.83;1741824;79;21066;-61
2022/02/15 11:31:04;;;;;;;7.37;3.85;;;;;;;7.30;42.26;101167.53;1767745;79;21117;-61
2022/02/15 11:33:29;;;;;;;8.10;3.67;;;;;;;7.34;41.81;101169.05;1763662;79;20985;-63
2022/02/15 11:36:08;;;;;;;10.63;4.25;;;;;;;7.37;41.98;101161.03;1700332;82;21095;-58